sensor_id;sensor_type;location;lat;lon;timestamp;P1;durP1;ratioP1;P2;durP2;ratioP2
17806;SDS011;9027;48.938;9.182;2023-03-04T00:00:52;41.10;;;23.27;;
17806;SDS011;9027;48.938;9.182;2023-03-04T00:02:24;39.23;;;23.17;;
17806;SDS011;9027;48.938;9.182;2023-03-04T00:03:55;38.23;;;22.10;;
17806;SDS011;9027;48.938;9.182;2023-03-04T00:05:27;36.37;;;22.73;;
17806;SDS011;9027;48.938;9.182;2023-03-04T00:07:00;37.23;;;21.80;;
17806;SDS011;9027;48.938;9.182;2023-03-04T00:08:32;36.83;;;22.30;;
17806;SDS011;9027;48.938;9.182;2023-03-04T00:10:05;41.13;;;24.53;;
17806;SDS011;9027;48.938;9.182;2023-03-04T00:11:38;52.17;;;28.77;;
17806;SDS011;9027;48.938;9.182;2023-03-04T00:13:10;67.43;;;31.13;;
17806;SDS011;9027;48.938;9.182;2023-03-04T00:14:41;59.77;;;29.33;;
17806;SDS011;9027;48.938;9.182;2023-03-04T00:16:13;67.27;;;31.67;;
17806;SDS011;9027;48.938;9.182;2023-03-04T00:17:44;69.90;;;30.93;;
17806;SDS011;9027;48.938;9.182;2023-03-04T00:19:16;66.70;;;32.20;;
17806;SDS011;9027;48.938;9.182;2023-03-04T00:20:48;79.10;;;34.40;;
17806;SDS011;9027;48.938;9.182;2023-03-04T00:22:20;75.47;;;33.57;;
17806;SDS011;9027;48.938;9.182;2023-03-04T00:23:51;58.37;;;30.17;;
17806;SDS011;9027;48.938;9.182;2023-03-04T00:25:24;54.33;;;26.57;;
17806;SDS011;9027;48.938;9.182;2023-03-04T00:26:56;52.40;;;26.33;;
17806;SDS011;9027;48.938;9.182;2023-03-04T00:28:28;49.87;;;25.13;;
17806;SDS011;9027;48.938;9.182;2023-03-04T00:30:00;46.87;;;24.77;;
17806;SDS011;9027;48.938;9.182;2023-03-04T00:31:31;49.27;;;25.33;;
17806;SDS011;9027;48.938;9.182;2023-03-04T00:33:03;48.93;;;24.70;;
17806;SDS011;9027;48.938;9.182;2023-03-04T00:34:34;44.90;;;24.97;;
17806;SDS011;9027;48.938;9.182;2023-03-04T00:36:06;44.67;;;24.23;;
17806;SDS011;9027;48.938;9.182;2023-03-04T00:37:38;46.97;;;25.00;;
17806;SDS011;9027;48.938;9.182;2023-03-04T00:39:09;52.30;;;26.23;;
17806;SDS011;9027;48.938;9.182;2023-03-04T00:40:43;51.73;;;27.00;;
17806;SDS011;9027;48.938;9.182;2023-03-04T00:42:14;55.67;;;27.27;;
17806;SDS011;9027;48.938;9.182;2023-03-04T00:43:46;49.27;;;26.53;;
17806;SDS011;9027;48.938;9.182;2023-03-04T00:45:17;53.47;;;27.40;;
17806;SDS011;9027;48.938;9.182;2023-03-04T00:46:49;58.23;;;27.50;;
17806;SDS011;9027;48.938;9.182;2023-03-04T00:48:21;55.07;;;26.27;;
17806;SDS011;9027;48.938;9.182;2023-03-04T00:49:53;52.43;;;25.90;;
17806;SDS011;9027;48.938;9.182;2023-03-04T00:51:25;48.47;;;25.57;;
17806;SDS011;9027;48.938;9.182;2023-03-04T00:52:57;44.70;;;25.23;;
17806;SDS011;9027;48.938;9.182;2023-03-04T00:54:28;53.37;;;25.87;;
17806;SDS011;9027;48.938;9.182;2023-03-04T00:56:01;48.13;;;25.93;;
17806;SDS011;9027;48.938;9.182;2023-03-04T00:57:34;49.10;;;23.77;;
17806;SDS011;9027;48.938;9.182;2023-03-04T00:59:06;43.67;;;23.97;;
17806;SDS011;9027;48.938;9.182;2023-03-04T01:00:38;40.70;;;22.33;;
17806;SDS011;9027;48.938;9.182;2023-03-04T01:02:10;40.40;;;23.67;;
17806;SDS011;9027;48.938;9.182;2023-03-04T01:03:42;42.37;;;22.80;;
17806;SDS011;9027;48.938;9.182;2023-03-04T01:05:14;37.70;;;22.10;;
17806;SDS011;9027;48.938;9.182;2023-03-04T01:06:46;41.63;;;22.67;;
17806;SDS011;9027;48.938;9.182;2023-03-04T01:08:18;54.00;;;26.87;;
17806;SDS011;9027;48.938;9.182;2023-03-04T01:09:49;49.90;;;26.70;;
17806;SDS011;9027;48.938;9.182;2023-03-04T01:11:23;49.43;;;26.10;;
17806;SDS011;9027;48.938;9.182;2023-03-04T01:12:55;40.20;;;23.97;;
17806;SDS011;9027;48.938;9.182;2023-03-04T01:14:27;43.33;;;21.70;;
17806;SDS011;9027;48.938;9.182;2023-03-04T01:15:58;65.37;;;32.10;;
17806;SDS011;9027;48.938;9.182;2023-03-04T01:17:30;50.53;;;26.60;;
17806;SDS011;9027;48.938;9.182;2023-03-04T01:19:00;45.60;;;24.80;;
17806;SDS011;9027;48.938;9.182;2023-03-04T01:20:33;46.73;;;24.17;;
17806;SDS011;9027;48.938;9.182;2023-03-04T01:22:06;43.73;;;24.50;;
17806;SDS011;9027;48.938;9.182;2023-03-04T01:23:39;44.40;;;23.93;;
17806;SDS011;9027;48.938;9.182;2023-03-04T01:25:12;39.77;;;23.73;;
17806;SDS011;9027;48.938;9.182;2023-03-04T01:26:45;39.90;;;21.60;;
17806;SDS011;9027;48.938;9.182;2023-03-04T01:28:17;37.37;;;22.03;;
17806;SDS011;9027;48.938;9.182;2023-03-04T01:29:51;50.47;;;26.00;;
17806;SDS011;9027;48.938;9.182;2023-03-04T01:31:22;44.83;;;24.27;;
17806;SDS011;9027;48.938;9.182;2023-03-04T01:32:55;43.80;;;23.93;;
17806;SDS011;9027;48.938;9.182;2023-03-04T01:34:26;40.40;;;21.47;;
17806;SDS011;9027;48.938;9.182;2023-03-04T01:35:58;37.30;;;21.43;;
17806;SDS011;9027;48.938;9.182;2023-03-04T01:37:30;39.03;;;21.97;;
17806;SDS011;9027;48.938;9.182;2023-03-04T01:39:02;41.23;;;21.03;;
17806;SDS011;9027;48.938;9.182;2023-03-04T01:40:34;37.30;;;20.70;;
17806;SDS011;9027;48.938;9.182;2023-03-04T01:42:11;39.60;;;22.03;;
17806;SDS011;9027;48.938;9.182;2023-03-04T01:43:48;36.10;;;20.67;;
17806;SDS011;9027;48.938;9.182;2023-03-04T01:45:20;39.53;;;20.83;;
17806;SDS011;9027;48.938;9.182;2023-03-04T01:46:53;34.33;;;20.67;;
17806;SDS011;9027;48.938;9.182;2023-03-04T01:48:26;38.27;;;21.00;;
17806;SDS011;9027;48.938;9.182;2023-03-04T01:50:04;42.47;;;20.37;;
17806;SDS011;9027;48.938;9.182;2023-03-04T01:51:45;38.87;;;20.27;;
17806;SDS011;9027;48.938;9.182;2023-03-04T01:53:19;43.13;;;20.60;;
17806;SDS011;9027;48.938;9.182;2023-03-04T01:54:53;39.60;;;21.10;;
17806;SDS011;9027;48.938;9.182;2023-03-04T01:56:27;40.57;;;21.47;;
17806;SDS011;9027;48.938;9.182;2023-03-04T01:58:04;39.60;;;22.83;;
17806;SDS011;9027;48.938;9.182;2023-03-04T01:59:39;42.73;;;21.77;;
17806;SDS011;9027;48.938;9.182;2023-03-04T02:01:11;34.93;;;19.30;;
17806;SDS011;9027;48.938;9.182;2023-03-04T02:02:44;35.00;;;19.90;;
17806;SDS011;9027;48.938;9.182;2023-03-04T02:04:15;35.33;;;20.87;;
17806;SDS011;9027;48.938;9.182;2023-03-04T02:05:49;35.37;;;19.60;;
17806;SDS011;9027;48.938;9.182;2023-03-04T02:07:22;34.93;;;18.87;;
17806;SDS011;9027;48.938;9.182;2023-03-04T02:08:53;32.00;;;17.73;;
17806;SDS011;9027;48.938;9.182;2023-03-04T02:10:25;33.37;;;18.97;;
17806;SDS011;9027;48.938;9.182;2023-03-04T02:11:58;33.50;;;18.70;;
17806;SDS011;9027;48.938;9.182;2023-03-04T02:13:30;34.93;;;18.97;;
17806;SDS011;9027;48.938;9.182;2023-03-04T02:15:03;31.83;;;17.70;;
17806;SDS011;9027;48.938;9.182;2023-03-04T02:16:36;30.00;;;18.17;;
17806;SDS011;9027;48.938;9.182;2023-03-04T02:18:11;32.37;;;19.33;;
17806;SDS011;9027;48.938;9.182;2023-03-04T02:19:45;33.00;;;17.67;;
17806;SDS011;9027;48.938;9.182;2023-03-04T02:21:22;28.50;;;16.67;;
17806;SDS011;9027;48.938;9.182;2023-03-04T02:22:57;30.33;;;16.90;;
17806;SDS011;9027;48.938;9.182;2023-03-04T02:24:34;31.13;;;17.03;;
17806;SDS011;9027;48.938;9.182;2023-03-04T02:26:12;31.40;;;16.97;;
17806;SDS011;9027;48.938;9.182;2023-03-04T02:27:46;28.67;;;17.13;;
17806;SDS011;9027;48.938;9.182;2023-03-04T02:29:18;29.63;;;17.20;;
17806;SDS011;9027;48.938;9.182;2023-03-04T02:30:50;27.87;;;16.17;;
17806;SDS011;9027;48.938;9.182;2023-03-04T02:32:22;28.70;;;17.93;;
17806;SDS011;9027;48.938;9.182;2023-03-04T02:33:54;25.90;;;16.10;;
17806;SDS011;9027;48.938;9.182;2023-03-04T02:35:26;27.60;;;15.90;;
17806;SDS011;9027;48.938;9.182;2023-03-04T02:36:59;28.30;;;15.47;;
17806;SDS011;9027;48.938;9.182;2023-03-04T02:38:34;25.47;;;14.53;;
17806;SDS011;9027;48.938;9.182;2023-03-04T02:40:07;25.47;;;15.90;;
17806;SDS011;9027;48.938;9.182;2023-03-04T02:41:45;26.67;;;15.60;;
17806;SDS011;9027;48.938;9.182;2023-03-04T02:43:18;27.33;;;15.60;;
17806;SDS011;9027;48.938;9.182;2023-03-04T02:44:58;27.20;;;15.27;;
17806;SDS011;9027;48.938;9.182;2023-03-04T02:46:31;27.87;;;15.33;;
17806;SDS011;9027;48.938;9.182;2023-03-04T02:48:03;27.33;;;15.17;;
17806;SDS011;9027;48.938;9.182;2023-03-04T02:49:35;26.70;;;14.97;;
17806;SDS011;9027;48.938;9.182;2023-03-04T02:51:08;27.60;;;16.53;;
17806;SDS011;9027;48.938;9.182;2023-03-04T02:52:39;26.50;;;15.47;;
17806;SDS011;9027;48.938;9.182;2023-03-04T02:54:14;29.07;;;16.17;;
17806;SDS011;9027;48.938;9.182;2023-03-04T02:55:46;29.37;;;15.67;;
17806;SDS011;9027;48.938;9.182;2023-03-04T02:57:20;28.23;;;15.10;;
17806;SDS011;9027;48.938;9.182;2023-03-04T02:58:56;30.30;;;16.53;;
17806;SDS011;9027;48.938;9.182;2023-03-04T03:00:28;27.83;;;14.80;;
17806;SDS011;9027;48.938;9.182;2023-03-04T03:01:59;24.93;;;14.00;;
17806;SDS011;9027;48.938;9.182;2023-03-04T03:03:31;26.13;;;14.67;;
17806;SDS011;9027;48.938;9.182;2023-03-04T03:05:03;21.73;;;13.80;;
17806;SDS011;9027;48.938;9.182;2023-03-04T03:06:35;23.73;;;14.77;;
17806;SDS011;9027;48.938;9.182;2023-03-04T03:08:06;28.50;;;15.40;;
17806;SDS011;9027;48.938;9.182;2023-03-04T03:09:38;27.63;;;15.63;;
17806;SDS011;9027;48.938;9.182;2023-03-04T03:11:10;29.87;;;15.67;;
17806;SDS011;9027;48.938;9.182;2023-03-04T03:12:44;26.03;;;14.93;;
17806;SDS011;9027;48.938;9.182;2023-03-04T03:14:15;26.07;;;15.23;;
17806;SDS011;9027;48.938;9.182;2023-03-04T03:15:47;24.37;;;14.37;;
17806;SDS011;9027;48.938;9.182;2023-03-04T03:17:19;27.20;;;14.23;;
17806;SDS011;9027;48.938;9.182;2023-03-04T03:18:51;23.47;;;13.87;;
17806;SDS011;9027;48.938;9.182;2023-03-04T03:20:23;24.43;;;13.80;;
17806;SDS011;9027;48.938;9.182;2023-03-04T03:21:55;24.47;;;14.47;;
17806;SDS011;9027;48.938;9.182;2023-03-04T03:23:26;24.33;;;14.57;;
17806;SDS011;9027;48.938;9.182;2023-03-04T03:24:58;21.50;;;13.40;;
17806;SDS011;9027;48.938;9.182;2023-03-04T03:26:29;29.73;;;15.13;;
17806;SDS011;9027;48.938;9.182;2023-03-04T03:28:02;27.17;;;15.43;;
17806;SDS011;9027;48.938;9.182;2023-03-04T03:29:34;24.77;;;14.47;;
17806;SDS011;9027;48.938;9.182;2023-03-04T03:31:05;25.40;;;14.57;;
17806;SDS011;9027;48.938;9.182;2023-03-04T03:32:37;23.60;;;13.90;;
17806;SDS011;9027;48.938;9.182;2023-03-04T03:34:10;24.83;;;14.23;;
17806;SDS011;9027;48.938;9.182;2023-03-04T03:35:42;24.60;;;14.53;;
17806;SDS011;9027;48.938;9.182;2023-03-04T03:37:15;23.90;;;14.20;;
17806;SDS011;9027;48.938;9.182;2023-03-04T03:38:47;26.83;;;14.33;;
17806;SDS011;9027;48.938;9.182;2023-03-04T03:40:19;26.13;;;13.80;;
17806;SDS011;9027;48.938;9.182;2023-03-04T03:41:51;27.43;;;15.43;;
17806;SDS011;9027;48.938;9.182;2023-03-04T03:43:23;27.10;;;15.10;;
17806;SDS011;9027;48.938;9.182;2023-03-04T03:44:55;26.43;;;14.50;;
17806;SDS011;9027;48.938;9.182;2023-03-04T03:46:26;25.80;;;13.60;;
17806;SDS011;9027;48.938;9.182;2023-03-04T03:47:58;24.83;;;14.57;;
17806;SDS011;9027;48.938;9.182;2023-03-04T03:49:30;24.20;;;14.40;;
17806;SDS011;9027;48.938;9.182;2023-03-04T03:51:02;28.87;;;15.43;;
17806;SDS011;9027;48.938;9.182;2023-03-04T03:52:34;24.57;;;14.77;;
17806;SDS011;9027;48.938;9.182;2023-03-04T03:54:06;29.23;;;15.50;;
17806;SDS011;9027;48.938;9.182;2023-03-04T03:55:38;30.00;;;15.67;;
17806;SDS011;9027;48.938;9.182;2023-03-04T03:57:10;26.20;;;15.83;;
17806;SDS011;9027;48.938;9.182;2023-03-04T03:58:42;27.60;;;15.30;;
17806;SDS011;9027;48.938;9.182;2023-03-04T04:00:15;29.13;;;15.93;;
17806;SDS011;9027;48.938;9.182;2023-03-04T04:01:47;29.57;;;16.43;;
17806;SDS011;9027;48.938;9.182;2023-03-04T04:03:18;30.20;;;16.07;;
17806;SDS011;9027;48.938;9.182;2023-03-04T04:04:50;30.27;;;16.63;;
17806;SDS011;9027;48.938;9.182;2023-03-04T04:06:20;30.77;;;16.03;;
17806;SDS011;9027;48.938;9.182;2023-03-04T04:07:52;32.33;;;17.43;;
17806;SDS011;9027;48.938;9.182;2023-03-04T04:09:24;29.83;;;15.20;;
17806;SDS011;9027;48.938;9.182;2023-03-04T04:10:56;33.87;;;17.27;;
17806;SDS011;9027;48.938;9.182;2023-03-04T04:12:27;30.67;;;16.07;;
17806;SDS011;9027;48.938;9.182;2023-03-04T04:14:00;32.40;;;16.50;;
17806;SDS011;9027;48.938;9.182;2023-03-04T04:15:32;30.97;;;16.70;;
17806;SDS011;9027;48.938;9.182;2023-03-04T04:17:04;33.87;;;16.40;;
17806;SDS011;9027;48.938;9.182;2023-03-04T04:18:36;32.40;;;17.43;;
17806;SDS011;9027;48.938;9.182;2023-03-04T04:20:08;33.20;;;16.23;;
17806;SDS011;9027;48.938;9.182;2023-03-04T04:21:41;27.33;;;15.93;;
17806;SDS011;9027;48.938;9.182;2023-03-04T04:23:12;31.23;;;16.73;;
17806;SDS011;9027;48.938;9.182;2023-03-04T04:24:44;35.47;;;18.40;;
17806;SDS011;9027;48.938;9.182;2023-03-04T04:26:16;31.60;;;17.00;;
17806;SDS011;9027;48.938;9.182;2023-03-04T04:27:46;30.80;;;16.90;;
17806;SDS011;9027;48.938;9.182;2023-03-04T04:29:20;30.87;;;16.93;;
17806;SDS011;9027;48.938;9.182;2023-03-04T04:30:52;30.77;;;16.73;;
17806;SDS011;9027;48.938;9.182;2023-03-04T04:32:24;31.93;;;16.87;;
17806;SDS011;9027;48.938;9.182;2023-03-04T04:33:55;31.53;;;17.07;;
17806;SDS011;9027;48.938;9.182;2023-03-04T04:35:27;29.83;;;17.30;;
17806;SDS011;9027;48.938;9.182;2023-03-04T04:36:59;30.73;;;17.27;;
17806;SDS011;9027;48.938;9.182;2023-03-04T04:38:31;33.80;;;17.50;;
17806;SDS011;9027;48.938;9.182;2023-03-04T04:40:02;31.93;;;18.33;;
17806;SDS011;9027;48.938;9.182;2023-03-04T04:41:35;33.53;;;18.77;;
17806;SDS011;9027;48.938;9.182;2023-03-04T04:43:07;31.90;;;16.87;;
17806;SDS011;9027;48.938;9.182;2023-03-04T04:44:41;32.77;;;18.47;;
17806;SDS011;9027;48.938;9.182;2023-03-04T04:46:13;28.87;;;17.07;;
17806;SDS011;9027;48.938;9.182;2023-03-04T04:47:45;36.33;;;18.53;;
17806;SDS011;9027;48.938;9.182;2023-03-04T04:49:17;31.83;;;17.37;;
17806;SDS011;9027;48.938;9.182;2023-03-04T04:50:52;32.17;;;17.37;;
17806;SDS011;9027;48.938;9.182;2023-03-04T04:52:25;31.63;;;17.73;;
17806;SDS011;9027;48.938;9.182;2023-03-04T04:53:57;33.13;;;17.13;;
17806;SDS011;9027;48.938;9.182;2023-03-04T04:55:29;35.07;;;18.33;;
17806;SDS011;9027;48.938;9.182;2023-03-04T04:57:00;32.13;;;18.17;;
17806;SDS011;9027;48.938;9.182;2023-03-04T04:58:32;34.20;;;18.80;;
17806;SDS011;9027;48.938;9.182;2023-03-04T05:00:06;32.40;;;16.80;;
17806;SDS011;9027;48.938;9.182;2023-03-04T05:01:39;36.67;;;17.60;;
17806;SDS011;9027;48.938;9.182;2023-03-04T05:03:11;32.53;;;17.83;;
17806;SDS011;9027;48.938;9.182;2023-03-04T05:04:42;35.13;;;18.30;;
17806;SDS011;9027;48.938;9.182;2023-03-04T05:06:15;31.20;;;16.73;;
17806;SDS011;9027;48.938;9.182;2023-03-04T05:07:46;33.13;;;16.73;;
17806;SDS011;9027;48.938;9.182;2023-03-04T05:09:18;35.57;;;18.23;;
17806;SDS011;9027;48.938;9.182;2023-03-04T05:10:52;33.27;;;18.23;;
17806;SDS011;9027;48.938;9.182;2023-03-04T05:12:24;32.50;;;18.10;;
17806;SDS011;9027;48.938;9.182;2023-03-04T05:13:56;30.13;;;17.00;;
17806;SDS011;9027;48.938;9.182;2023-03-04T05:15:29;33.03;;;18.07;;
17806;SDS011;9027;48.938;9.182;2023-03-04T05:17:01;32.63;;;17.37;;
17806;SDS011;9027;48.938;9.182;2023-03-04T05:18:33;30.57;;;17.13;;
17806;SDS011;9027;48.938;9.182;2023-03-04T05:20:04;35.40;;;18.57;;
17806;SDS011;9027;48.938;9.182;2023-03-04T05:21:37;35.07;;;17.33;;
17806;SDS011;9027;48.938;9.182;2023-03-04T05:23:09;34.47;;;17.67;;
17806;SDS011;9027;48.938;9.182;2023-03-04T05:24:39;30.77;;;17.80;;
17806;SDS011;9027;48.938;9.182;2023-03-04T05:26:12;33.17;;;16.97;;
17806;SDS011;9027;48.938;9.182;2023-03-04T05:27:45;33.57;;;18.17;;
17806;SDS011;9027;48.938;9.182;2023-03-04T05:29:17;34.53;;;18.03;;
17806;SDS011;9027;48.938;9.182;2023-03-04T05:30:51;34.13;;;18.60;;
17806;SDS011;9027;48.938;9.182;2023-03-04T05:32:22;32.00;;;17.87;;
17806;SDS011;9027;48.938;9.182;2023-03-04T05:33:53;35.40;;;17.77;;
17806;SDS011;9027;48.938;9.182;2023-03-04T05:35:25;32.93;;;18.27;;
17806;SDS011;9027;48.938;9.182;2023-03-04T05:36:57;34.27;;;18.77;;
17806;SDS011;9027;48.938;9.182;2023-03-04T05:38:29;34.73;;;17.23;;
17806;SDS011;9027;48.938;9.182;2023-03-04T05:40:00;34.53;;;17.50;;
17806;SDS011;9027;48.938;9.182;2023-03-04T05:41:32;35.53;;;18.57;;
17806;SDS011;9027;48.938;9.182;2023-03-04T05:43:04;33.13;;;17.67;;
17806;SDS011;9027;48.938;9.182;2023-03-04T05:44:35;30.80;;;16.80;;
17806;SDS011;9027;48.938;9.182;2023-03-04T05:46:08;30.63;;;16.83;;
17806;SDS011;9027;48.938;9.182;2023-03-04T05:47:43;32.63;;;17.30;;
17806;SDS011;9027;48.938;9.182;2023-03-04T05:49:15;32.23;;;16.77;;
17806;SDS011;9027;48.938;9.182;2023-03-04T05:50:51;33.20;;;17.43;;
17806;SDS011;9027;48.938;9.182;2023-03-04T05:52:24;31.03;;;17.67;;
17806;SDS011;9027;48.938;9.182;2023-03-04T05:53:56;32.20;;;17.60;;
17806;SDS011;9027;48.938;9.182;2023-03-04T05:55:28;34.73;;;18.20;;
17806;SDS011;9027;48.938;9.182;2023-03-04T05:56:59;36.67;;;18.00;;
17806;SDS011;9027;48.938;9.182;2023-03-04T05:58:31;34.03;;;17.07;;
17806;SDS011;9027;48.938;9.182;2023-03-04T06:00:04;33.07;;;18.40;;
17806;SDS011;9027;48.938;9.182;2023-03-04T06:01:44;32.00;;;16.97;;
17806;SDS011;9027;48.938;9.182;2023-03-04T06:03:16;34.23;;;17.97;;
17806;SDS011;9027;48.938;9.182;2023-03-04T06:04:50;33.17;;;16.80;;
17806;SDS011;9027;48.938;9.182;2023-03-04T06:06:22;31.40;;;16.53;;
17806;SDS011;9027;48.938;9.182;2023-03-04T06:07:54;32.27;;;16.77;;
17806;SDS011;9027;48.938;9.182;2023-03-04T06:09:26;37.13;;;18.10;;
17806;SDS011;9027;48.938;9.182;2023-03-04T06:10:57;33.73;;;17.40;;
17806;SDS011;9027;48.938;9.182;2023-03-04T06:12:30;29.20;;;15.90;;
17806;SDS011;9027;48.938;9.182;2023-03-04T06:14:02;34.30;;;17.50;;
17806;SDS011;9027;48.938;9.182;2023-03-04T06:15:34;35.53;;;17.87;;
17806;SDS011;9027;48.938;9.182;2023-03-04T06:17:07;31.23;;;16.90;;
17806;SDS011;9027;48.938;9.182;2023-03-04T06:18:39;34.43;;;17.27;;
17806;SDS011;9027;48.938;9.182;2023-03-04T06:20:11;34.80;;;18.43;;
17806;SDS011;9027;48.938;9.182;2023-03-04T06:21:43;35.13;;;17.83;;
17806;SDS011;9027;48.938;9.182;2023-03-04T06:23:15;31.10;;;17.03;;
17806;SDS011;9027;48.938;9.182;2023-03-04T06:24:46;32.33;;;17.80;;
17806;SDS011;9027;48.938;9.182;2023-03-04T06:26:18;37.27;;;19.83;;
17806;SDS011;9027;48.938;9.182;2023-03-04T06:27:50;35.87;;;17.97;;
17806;SDS011;9027;48.938;9.182;2023-03-04T06:29:22;37.63;;;17.73;;
17806;SDS011;9027;48.938;9.182;2023-03-04T06:30:54;36.00;;;19.07;;
17806;SDS011;9027;48.938;9.182;2023-03-04T06:32:28;31.97;;;16.53;;
17806;SDS011;9027;48.938;9.182;2023-03-04T06:33:59;36.53;;;18.20;;
17806;SDS011;9027;48.938;9.182;2023-03-04T06:35:31;31.17;;;18.63;;
17806;SDS011;9027;48.938;9.182;2023-03-04T06:37:03;35.63;;;17.43;;
17806;SDS011;9027;48.938;9.182;2023-03-04T06:38:35;30.80;;;17.47;;
17806;SDS011;9027;48.938;9.182;2023-03-04T06:40:07;32.07;;;17.40;;
17806;SDS011;9027;48.938;9.182;2023-03-04T06:41:40;36.07;;;18.60;;
17806;SDS011;9027;48.938;9.182;2023-03-04T06:43:12;34.40;;;19.33;;
17806;SDS011;9027;48.938;9.182;2023-03-04T06:44:44;38.23;;;21.13;;
17806;SDS011;9027;48.938;9.182;2023-03-04T06:46:16;40.60;;;21.20;;
17806;SDS011;9027;48.938;9.182;2023-03-04T06:47:49;38.40;;;19.23;;
17806;SDS011;9027;48.938;9.182;2023-03-04T06:49:21;34.50;;;19.70;;
17806;SDS011;9027;48.938;9.182;2023-03-04T06:50:53;35.20;;;18.63;;
17806;SDS011;9027;48.938;9.182;2023-03-04T06:52:24;34.27;;;19.47;;
17806;SDS011;9027;48.938;9.182;2023-03-04T06:53:56;38.13;;;19.07;;
17806;SDS011;9027;48.938;9.182;2023-03-04T06:55:28;36.27;;;19.73;;
17806;SDS011;9027;48.938;9.182;2023-03-04T06:57:00;33.60;;;18.77;;
17806;SDS011;9027;48.938;9.182;2023-03-04T06:58:32;33.43;;;19.43;;
17806;SDS011;9027;48.938;9.182;2023-03-04T07:00:05;37.03;;;21.07;;
17806;SDS011;9027;48.938;9.182;2023-03-04T07:01:37;39.00;;;21.90;;
17806;SDS011;9027;48.938;9.182;2023-03-04T07:03:11;40.30;;;21.30;;
17806;SDS011;9027;48.938;9.182;2023-03-04T07:04:43;41.10;;;21.37;;
17806;SDS011;9027;48.938;9.182;2023-03-04T07:06:15;43.87;;;21.67;;
17806;SDS011;9027;48.938;9.182;2023-03-04T07:07:48;32.83;;;19.73;;
17806;SDS011;9027;48.938;9.182;2023-03-04T07:09:20;39.77;;;21.40;;
17806;SDS011;9027;48.938;9.182;2023-03-04T07:10:52;32.47;;;19.40;;
17806;SDS011;9027;48.938;9.182;2023-03-04T07:12:24;34.27;;;20.07;;
17806;SDS011;9027;48.938;9.182;2023-03-04T07:13:56;38.43;;;18.97;;
17806;SDS011;9027;48.938;9.182;2023-03-04T07:15:28;32.93;;;19.13;;
17806;SDS011;9027;48.938;9.182;2023-03-04T07:17:00;36.17;;;20.70;;
17806;SDS011;9027;48.938;9.182;2023-03-04T07:18:33;34.80;;;19.53;;
17806;SDS011;9027;48.938;9.182;2023-03-04T07:20:05;39.33;;;21.00;;
17806;SDS011;9027;48.938;9.182;2023-03-04T07:21:37;41.93;;;21.27;;
17806;SDS011;9027;48.938;9.182;2023-03-04T07:23:08;35.67;;;20.10;;
17806;SDS011;9027;48.938;9.182;2023-03-04T07:24:40;35.80;;;21.00;;
17806;SDS011;9027;48.938;9.182;2023-03-04T07:26:12;36.50;;;21.13;;
17806;SDS011;9027;48.938;9.182;2023-03-04T07:27:44;39.17;;;20.83;;
17806;SDS011;9027;48.938;9.182;2023-03-04T07:29:16;39.97;;;20.50;;
17806;SDS011;9027;48.938;9.182;2023-03-04T07:30:48;39.70;;;21.33;;
17806;SDS011;9027;48.938;9.182;2023-03-04T07:32:20;38.73;;;20.03;;
17806;SDS011;9027;48.938;9.182;2023-03-04T07:33:54;39.53;;;19.90;;
17806;SDS011;9027;48.938;9.182;2023-03-04T07:35:27;39.83;;;21.50;;
17806;SDS011;9027;48.938;9.182;2023-03-04T07:36:59;38.10;;;19.97;;
17806;SDS011;9027;48.938;9.182;2023-03-04T07:38:30;37.50;;;19.30;;
17806;SDS011;9027;48.938;9.182;2023-03-04T07:40:03;37.73;;;18.90;;
17806;SDS011;9027;48.938;9.182;2023-03-04T07:41:37;35.70;;;18.67;;
17806;SDS011;9027;48.938;9.182;2023-03-04T07:43:09;38.30;;;20.70;;
17806;SDS011;9027;48.938;9.182;2023-03-04T07:44:41;37.97;;;18.60;;
17806;SDS011;9027;48.938;9.182;2023-03-04T07:46:13;32.07;;;18.07;;
17806;SDS011;9027;48.938;9.182;2023-03-04T07:47:45;32.20;;;16.37;;
17806;SDS011;9027;48.938;9.182;2023-03-04T07:49:19;32.87;;;18.00;;
17806;SDS011;9027;48.938;9.182;2023-03-04T07:51:00;33.60;;;19.07;;
17806;SDS011;9027;48.938;9.182;2023-03-04T07:52:36;31.80;;;17.83;;
17806;SDS011;9027;48.938;9.182;2023-03-04T07:54:09;35.47;;;18.13;;
17806;SDS011;9027;48.938;9.182;2023-03-04T07:55:41;35.87;;;18.90;;
17806;SDS011;9027;48.938;9.182;2023-03-04T07:57:12;34.67;;;18.27;;
17806;SDS011;9027;48.938;9.182;2023-03-04T07:58:44;33.03;;;18.47;;
17806;SDS011;9027;48.938;9.182;2023-03-04T08:00:16;35.93;;;19.07;;
17806;SDS011;9027;48.938;9.182;2023-03-04T08:01:48;35.73;;;20.30;;
17806;SDS011;9027;48.938;9.182;2023-03-04T08:03:20;37.63;;;20.57;;
17806;SDS011;9027;48.938;9.182;2023-03-04T08:04:53;34.83;;;19.27;;
17806;SDS011;9027;48.938;9.182;2023-03-04T08:06:25;34.37;;;19.43;;
17806;SDS011;9027;48.938;9.182;2023-03-04T08:07:58;38.67;;;21.53;;
17806;SDS011;9027;48.938;9.182;2023-03-04T08:09:29;37.13;;;21.83;;
17806;SDS011;9027;48.938;9.182;2023-03-04T08:11:02;45.83;;;26.13;;
17806;SDS011;9027;48.938;9.182;2023-03-04T08:12:34;35.63;;;20.07;;
17806;SDS011;9027;48.938;9.182;2023-03-04T08:14:06;39.13;;;21.73;;
17806;SDS011;9027;48.938;9.182;2023-03-04T08:15:38;50.03;;;23.63;;
17806;SDS011;9027;48.938;9.182;2023-03-04T08:17:10;41.63;;;21.60;;
17806;SDS011;9027;48.938;9.182;2023-03-04T08:18:44;39.20;;;21.03;;
17806;SDS011;9027;48.938;9.182;2023-03-04T08:20:19;41.43;;;21.87;;
17806;SDS011;9027;48.938;9.182;2023-03-04T08:21:51;39.23;;;22.63;;
17806;SDS011;9027;48.938;9.182;2023-03-04T08:23:23;45.17;;;22.53;;
17806;SDS011;9027;48.938;9.182;2023-03-04T08:24:55;42.50;;;21.53;;
17806;SDS011;9027;48.938;9.182;2023-03-04T08:26:27;39.00;;;20.33;;
17806;SDS011;9027;48.938;9.182;2023-03-04T08:28:03;38.30;;;21.30;;
17806;SDS011;9027;48.938;9.182;2023-03-04T08:29:35;41.40;;;21.73;;
17806;SDS011;9027;48.938;9.182;2023-03-04T08:31:07;41.77;;;21.73;;
17806;SDS011;9027;48.938;9.182;2023-03-04T08:32:38;41.40;;;22.70;;
17806;SDS011;9027;48.938;9.182;2023-03-04T08:34:10;38.13;;;21.50;;
17806;SDS011;9027;48.938;9.182;2023-03-04T08:35:45;38.83;;;21.20;;
17806;SDS011;9027;48.938;9.182;2023-03-04T08:37:17;38.50;;;21.47;;
17806;SDS011;9027;48.938;9.182;2023-03-04T08:38:48;36.93;;;20.43;;
17806;SDS011;9027;48.938;9.182;2023-03-04T08:40:20;37.67;;;20.30;;
17806;SDS011;9027;48.938;9.182;2023-03-04T08:41:53;36.60;;;20.53;;
17806;SDS011;9027;48.938;9.182;2023-03-04T08:43:25;35.33;;;20.23;;
17806;SDS011;9027;48.938;9.182;2023-03-04T08:44:57;36.93;;;19.23;;
17806;SDS011;9027;48.938;9.182;2023-03-04T08:46:29;35.27;;;19.73;;
17806;SDS011;9027;48.938;9.182;2023-03-04T08:48:01;34.47;;;20.33;;
17806;SDS011;9027;48.938;9.182;2023-03-04T08:49:33;33.00;;;18.93;;
17806;SDS011;9027;48.938;9.182;2023-03-04T08:51:07;34.00;;;18.97;;
17806;SDS011;9027;48.938;9.182;2023-03-04T08:52:40;32.73;;;19.03;;
17806;SDS011;9027;48.938;9.182;2023-03-04T08:54:12;34.27;;;18.83;;
17806;SDS011;9027;48.938;9.182;2023-03-04T08:55:44;34.00;;;19.53;;
17806;SDS011;9027;48.938;9.182;2023-03-04T08:57:16;33.40;;;19.63;;
17806;SDS011;9027;48.938;9.182;2023-03-04T08:58:50;36.67;;;19.83;;
17806;SDS011;9027;48.938;9.182;2023-03-04T09:00:21;32.00;;;18.27;;
17806;SDS011;9027;48.938;9.182;2023-03-04T09:01:53;38.27;;;19.43;;
17806;SDS011;9027;48.938;9.182;2023-03-04T09:03:25;31.47;;;18.27;;
17806;SDS011;9027;48.938;9.182;2023-03-04T09:04:58;36.27;;;19.40;;
17806;SDS011;9027;48.938;9.182;2023-03-04T09:06:31;35.93;;;19.87;;
17806;SDS011;9027;48.938;9.182;2023-03-04T09:08:03;34.33;;;19.77;;